createdAt,value
2023-02-17T00:01:19.885Z,11.05
2023-02-17T00:03:46.765Z,13.60
2023-02-17T00:06:13.583Z,13.02
2023-02-17T00:08:40.359Z,17.48
2023-02-17T00:11:07.154Z,11.80
2023-02-17T00:13:33.905Z,13.27
2023-02-17T00:16:00.683Z,15.27
2023-02-17T00:18:27.403Z,14.30
2023-02-17T00:20:54.013Z,12.85
2023-02-17T00:23:20.663Z,12.13
2023-02-17T00:25:47.308Z,14.25
2023-02-17T00:28:14.015Z,15.48
2023-02-17T00:30:40.654Z,14.35
2023-02-17T00:33:07.293Z,18.85
2023-02-17T00:35:33.963Z,17.00
2023-02-17T00:38:00.573Z,14.65
2023-02-17T00:40:27.244Z,14.10
2023-02-17T00:42:53.891Z,16.83
2023-02-17T00:45:20.649Z,14.57
2023-02-17T00:47:47.467Z,15.15
2023-02-17T00:50:14.064Z,14.10
2023-02-17T00:52:40.890Z,16.35
2023-02-17T00:55:07.759Z,15.80
2023-02-17T00:57:34.436Z,15.48
2023-02-17T01:00:01.074Z,14.75
2023-02-17T01:02:27.791Z,16.77
2023-02-17T01:04:54.515Z,17.15
2023-02-17T01:07:21.286Z,15.25
2023-02-17T01:09:47.971Z,19.35
2023-02-17T01:12:14.701Z,17.98
2023-02-17T01:14:41.373Z,14.70
2023-02-17T01:17:08.097Z,17.42
2023-02-17T01:19:34.758Z,17.15
2023-02-17T01:22:01.438Z,16.23
2023-02-17T01:24:28.151Z,16.13
2023-02-17T01:26:55.134Z,14.73
2023-02-17T01:29:21.731Z,16.42
2023-02-17T01:31:48.382Z,15.80
2023-02-17T01:34:15.104Z,14.95
2023-02-17T01:36:41.747Z,17.20
2023-02-17T01:39:08.338Z,18.75
2023-02-17T01:41:34.959Z,17.95
2023-02-17T01:44:13.363Z,15.05
2023-02-17T01:46:41.095Z,17.67
2023-02-17T01:49:37.757Z,16.73
2023-02-17T01:52:08.459Z,18.42
2023-02-17T01:54:43.905Z,14.93
2023-02-17T01:57:11.008Z,15.75
2023-02-17T01:59:37.692Z,14.73
2023-02-17T02:02:05.081Z,14.68
2023-02-17T02:04:33.747Z,18.05
2023-02-17T02:07:00.558Z,20.63
2023-02-17T02:09:36.716Z,17.95
2023-02-17T02:12:03.503Z,18.60
2023-02-17T02:14:30.120Z,13.13
2023-02-17T02:17:17.697Z,19.52
2023-02-17T02:20:02.587Z,12.52
2023-02-17T02:22:32.308Z,16.55
2023-02-17T02:25:29.165Z,16.33
2023-02-17T02:28:07.819Z,14.82
2023-02-17T02:31:05.051Z,15.27
2023-02-17T02:33:45.747Z,15.05
2023-02-17T02:36:18.086Z,16.77
2023-02-17T02:38:54.261Z,17.02
2023-02-17T02:41:35.776Z,16.70
2023-02-17T02:44:06.467Z,16.75
2023-02-17T02:46:33.173Z,18.30
2023-02-17T02:48:59.816Z,14.90
2023-02-17T02:51:44.510Z,18.90
2023-02-17T02:54:24.280Z,19.65
2023-02-17T02:57:03.150Z,19.85
2023-02-17T02:59:58.001Z,18.08
2023-02-17T03:02:32.376Z,18.88
2023-02-17T03:05:11.224Z,21.25
2023-02-17T03:07:45.229Z,17.30
2023-02-17T03:10:11.927Z,18.27
2023-02-17T03:12:38.658Z,17.48
2023-02-17T03:15:19.769Z,20.45
2023-02-17T03:17:46.446Z,17.17
2023-02-17T03:20:13.586Z,13.05
2023-02-17T03:22:41.701Z,12.40
2023-02-17T03:25:08.398Z,14.60
2023-02-17T03:27:35.044Z,13.73
2023-02-17T03:30:01.819Z,14.35
2023-02-17T03:32:28.482Z,15.13
2023-02-17T03:34:55.112Z,16.20
2023-02-17T03:37:21.833Z,14.70
2023-02-17T03:39:48.519Z,13.52
2023-02-17T03:42:15.125Z,12.02
2023-02-17T03:44:41.719Z,16.48
2023-02-17T03:47:08.378Z,11.68
2023-02-17T03:49:35.098Z,16.48
2023-02-17T03:52:01.781Z,13.27
2023-02-17T03:54:28.539Z,12.25
2023-02-17T03:56:55.270Z,13.40
2023-02-17T03:59:21.926Z,14.10
2023-02-17T04:01:48.574Z,13.32
2023-02-17T04:04:15.293Z,15.95
2023-02-17T04:06:42.041Z,12.63
2023-02-17T04:09:08.668Z,13.45
2023-02-17T04:11:35.916Z,15.10
2023-02-17T04:14:02.509Z,12.27
2023-02-17T04:16:29.155Z,11.30
2023-02-17T04:18:55.853Z,10.90
2023-02-17T04:21:22.501Z,9.50
2023-02-17T04:23:49.114Z,12.20
2023-02-17T04:26:15.768Z,9.52
2023-02-17T04:28:42.652Z,10.43
2023-02-17T04:31:09.575Z,12.80
2023-02-17T04:33:36.399Z,11.05
2023-02-17T04:36:03.341Z,12.68
2023-02-17T04:38:31.302Z,10.40
2023-02-17T04:40:58.377Z,11.75
2023-02-17T04:43:25.662Z,11.80
2023-02-17T04:45:52.448Z,12.00
2023-02-17T04:48:19.224Z,15.25
2023-02-17T04:50:46.112Z,17.55
2023-02-17T04:53:13.108Z,15.27
2023-02-17T04:55:40.357Z,15.60
2023-02-17T04:58:07.080Z,14.48
2023-02-17T05:00:33.675Z,12.27
2023-02-17T05:03:00.382Z,15.40
2023-02-17T05:05:27.005Z,14.88
2023-02-17T05:07:53.675Z,11.93
2023-02-17T05:10:21.638Z,12.25
2023-02-17T05:12:49.212Z,11.23
2023-02-17T05:15:15.928Z,15.15
2023-02-17T05:17:42.561Z,15.30
2023-02-17T05:20:09.567Z,11.52
2023-02-17T05:22:36.336Z,16.90
2023-02-17T05:25:03.276Z,14.70
2023-02-17T05:27:29.981Z,14.93
2023-02-17T05:29:56.755Z,15.07
2023-02-17T05:32:23.607Z,19.58
2023-02-17T05:34:50.367Z,14.07
2023-02-17T05:37:17.114Z,16.13
2023-02-17T05:39:43.764Z,15.90
2023-02-17T05:42:10.457Z,11.75
2023-02-17T05:44:37.096Z,12.82
2023-02-17T05:47:03.840Z,14.65
2023-02-17T05:49:30.498Z,13.88
2023-02-17T05:51:57.156Z,12.73
2023-02-17T05:54:23.785Z,16.55
2023-02-17T05:56:50.498Z,18.10
2023-02-17T05:59:17.234Z,15.38
2023-02-17T06:01:45.411Z,14.43
2023-02-17T06:04:12.065Z,15.73
2023-02-17T06:06:38.760Z,15.93
2023-02-17T06:09:05.396Z,14.63
2023-02-17T06:11:32.194Z,14.82
2023-02-17T06:13:58.857Z,16.17
2023-02-17T06:16:25.687Z,16.05
2023-02-17T06:18:52.357Z,14.23
2023-02-17T06:21:19.024Z,14.60
2023-02-17T06:23:45.700Z,15.23
2023-02-17T06:26:12.445Z,14.73
2023-02-17T06:28:39.157Z,14.48
2023-02-17T06:31:06.171Z,14.32
2023-02-17T06:33:32.819Z,14.27
2023-02-17T06:35:59.615Z,13.85
2023-02-17T06:38:26.570Z,15.60
2023-02-17T06:40:53.644Z,13.82
2023-02-17T06:43:20.630Z,16.48
2023-02-17T06:45:47.471Z,16.05
2023-02-17T06:48:16.500Z,13.70
2023-02-17T06:50:43.141Z,18.05
2023-02-17T06:53:09.890Z,13.30
2023-02-17T06:55:36.618Z,15.80
2023-02-17T06:58:03.345Z,12.95
2023-02-17T07:00:30.097Z,14.40
2023-02-17T07:02:56.858Z,14.43
2023-02-17T07:05:23.594Z,12.27
2023-02-17T07:07:50.294Z,12.95
2023-02-17T07:10:17.022Z,11.43
2023-02-17T07:12:43.642Z,13.55
2023-02-17T07:15:12.278Z,12.25
2023-02-17T07:17:39.240Z,11.50
2023-02-17T07:20:06.743Z,14.40
2023-02-17T07:22:33.358Z,12.27
2023-02-17T07:25:00.115Z,16.88
2023-02-17T07:27:26.770Z,13.57
2023-02-17T07:29:53.411Z,11.02
2023-02-17T07:32:20.194Z,11.50
2023-02-17T07:34:46.997Z,13.70
2023-02-17T07:37:13.650Z,11.10
2023-02-17T07:39:40.315Z,10.65
2023-02-17T07:42:07.178Z,12.25
2023-02-17T07:44:33.823Z,10.50
2023-02-17T07:47:00.628Z,10.52
2023-02-17T07:49:27.276Z,10.15
2023-02-17T07:51:53.905Z,11.90
2023-02-17T07:54:20.732Z,13.20
2023-02-17T07:56:47.344Z,10.80
2023-02-17T07:59:14.122Z,13.38
2023-02-17T08:01:41.006Z,11.82
2023-02-17T08:04:07.772Z,13.68
2023-02-17T08:06:34.495Z,11.10
2023-02-17T08:09:01.148Z,10.00
2023-02-17T08:11:27.872Z,9.98
2023-02-17T08:13:54.539Z,11.93
2023-02-17T08:16:21.217Z,9.23
2023-02-17T08:18:47.863Z,9.73
2023-02-17T08:21:14.574Z,9.35
2023-02-17T08:23:41.234Z,9.70
2023-02-17T08:26:08.640Z,10.13
2023-02-17T08:28:35.480Z,8.48
2023-02-17T08:31:02.246Z,9.57
2023-02-17T08:33:29.079Z,9.43
2023-02-17T08:35:55.699Z,8.98
2023-02-17T08:38:22.398Z,7.85
2023-02-17T08:40:49.097Z,8.65
2023-02-17T08:43:15.748Z,6.88
2023-02-17T08:45:42.465Z,6.07
2023-02-17T08:48:09.098Z,7.75
2023-02-17T08:50:35.733Z,6.00
2023-02-17T08:53:02.380Z,5.88
2023-02-17T08:55:33.472Z,5.85
2023-02-17T08:58:07.524Z,6.50
2023-02-17T09:00:34.259Z,7.75
2023-02-17T09:03:00.999Z,8.35
2023-02-17T09:05:27.716Z,6.57
2023-02-17T09:07:57.031Z,7.03
2023-02-17T09:10:23.698Z,6.63
2023-02-17T09:12:50.364Z,4.95
2023-02-17T09:15:17.073Z,9.25
2023-02-17T09:17:43.849Z,6.88
2023-02-17T09:20:23.828Z,5.25
2023-02-17T09:22:52.498Z,7.10
2023-02-17T09:25:19.326Z,6.07
2023-02-17T09:27:46.156Z,6.18
2023-02-17T09:30:13.441Z,5.68
2023-02-17T09:32:43.440Z,6.88
2023-02-17T09:35:14.173Z,6.95
2023-02-17T09:37:40.878Z,7.00
2023-02-17T09:40:08.957Z,6.80
2023-02-17T09:42:38.472Z,5.85
2023-02-17T09:45:08.341Z,6.80
2023-02-17T09:47:44.815Z,6.68
2023-02-17T09:50:44.128Z,7.40
2023-02-17T09:53:39.157Z,6.32
2023-02-17T09:58:39.127Z,8.20
2023-02-17T10:01:08.402Z,6.50
2023-02-17T10:03:52.107Z,7.25
2023-02-17T10:06:29.398Z,7.50
2023-02-17T10:09:18.781Z,6.90
2023-02-17T10:12:06.965Z,7.28
2023-02-17T10:14:55.137Z,7.95
2023-02-17T10:17:43.505Z,6.63
2023-02-17T10:22:43.943Z,5.13
2023-02-17T10:25:19.085Z,7.80
2023-02-17T10:27:48.773Z,6.63
2023-02-17T10:30:38.795Z,5.15
2023-02-17T10:33:11.451Z,6.90
2023-02-17T10:35:44.245Z,5.30
2023-02-17T10:38:16.222Z,7.00
2023-02-17T10:40:42.855Z,5.10
2023-02-17T10:43:09.505Z,7.32
2023-02-17T10:45:37.771Z,6.43
2023-02-17T10:48:26.062Z,7.55
2023-02-17T10:53:23.830Z,5.50
2023-02-17T10:55:53.512Z,7.00
2023-02-17T10:58:25.372Z,5.28
2023-02-17T11:00:54.207Z,5.05
2023-02-17T11:03:21.826Z,6.25
2023-02-17T11:06:02.209Z,6.32
2023-02-17T11:08:39.757Z,5.45
2023-02-17T11:11:17.532Z,5.78
2023-02-17T11:13:46.640Z,6.18
2023-02-17T11:16:25.405Z,8.38
2023-02-17T11:18:52.124Z,4.65
2023-02-17T11:21:18.871Z,5.05
2023-02-17T11:23:51.554Z,5.72
2023-02-17T11:26:22.908Z,6.32
2023-02-17T11:28:49.742Z,5.32
2023-02-17T11:31:23.926Z,12.02
2023-02-17T11:33:50.639Z,5.45
2023-02-17T11:36:29.686Z,6.00
2023-02-17T11:38:56.371Z,7.85
2023-02-17T11:41:23.420Z,6.88
2023-02-17T11:43:57.624Z,5.50
2023-02-17T11:46:35.948Z,5.20
2023-02-17T11:49:29.863Z,5.57
2023-02-17T11:52:01.244Z,4.18
2023-02-17T11:54:59.167Z,4.50
2023-02-17T11:57:53.244Z,6.72
2023-02-17T12:00:25.291Z,6.10
2023-02-17T12:03:04.157Z,5.90
2023-02-17T12:05:33.740Z,4.85
2023-02-17T12:08:32.101Z,6.50
2023-02-17T12:11:08.701Z,4.70
2023-02-17T12:13:57.512Z,7.25
2023-02-17T12:16:39.040Z,3.47
2023-02-17T12:19:54.086Z,6.03
2023-02-17T12:22:41.218Z,5.22
2023-02-17T12:25:26.334Z,6.20
2023-02-17T12:28:01.845Z,6.50
2023-02-17T12:30:53.625Z,5.68
2023-02-17T12:33:50.389Z,7.65
2023-02-17T12:36:17.654Z,4.93
2023-02-17T12:38:45.688Z,6.15
2023-02-17T12:41:30.754Z,6.63
2023-02-17T12:44:00.042Z,5.38
2023-02-17T12:46:40.186Z,6.95
2023-02-17T12:49:20.215Z,7.45
2023-02-17T12:51:49.951Z,3.83
2023-02-17T12:54:28.829Z,7.70
2023-02-17T12:57:10.618Z,9.63
2023-02-17T12:59:39.153Z,4.35
2023-02-17T13:02:11.077Z,5.50
2023-02-17T13:04:37.912Z,7.45
2023-02-17T13:07:24.797Z,11.38
2023-02-17T13:09:51.419Z,6.85
2023-02-17T13:12:31.843Z,7.40
2023-02-17T13:15:00.435Z,5.25
2023-02-17T13:17:27.029Z,6.70
2023-02-17T13:20:11.825Z,6.38
2023-02-17T13:22:39.155Z,3.70
2023-02-17T13:25:05.946Z,5.32
2023-02-17T13:27:36.831Z,5.68
2023-02-17T13:30:21.969Z,6.88
2023-02-17T13:32:59.689Z,7.35
2023-02-17T13:35:26.331Z,9.00
2023-02-17T13:37:53.006Z,6.90
2023-02-17T13:40:19.614Z,7.45
2023-02-17T13:42:50.309Z,6.47
2023-02-17T13:45:27.719Z,7.30
2023-02-17T13:47:56.233Z,6.65
2023-02-17T13:50:36.355Z,6.85
2023-02-17T13:53:06.320Z,5.22
2023-02-17T13:55:33.037Z,4.40
2023-02-17T13:57:59.747Z,5.85
2023-02-17T14:00:30.395Z,8.15
2023-02-17T14:03:12.210Z,5.25
2023-02-17T14:05:43.105Z,7.68
2023-02-17T14:08:34.826Z,6.93
2023-02-17T14:11:10.365Z,4.55
2023-02-17T14:13:37.728Z,7.63
2023-02-17T14:16:05.558Z,6.50
2023-02-17T14:18:37.818Z,11.48
2023-02-17T14:21:25.237Z,5.03
2023-02-17T14:23:53.491Z,5.78
2023-02-17T14:26:37.111Z,6.32
2023-02-17T14:29:05.448Z,7.03
2023-02-17T14:31:43.331Z,6.95
2023-02-17T14:34:34.039Z,6.00
2023-02-17T14:37:16.073Z,5.43
2023-02-17T14:42:09.385Z,5.15
2023-02-17T14:44:35.977Z,6.00
2023-02-17T14:47:02.730Z,8.02
2023-02-17T14:49:29.365Z,8.27
2023-02-17T14:51:56.436Z,7.55
2023-02-17T14:54:25.944Z,8.73
2023-02-17T14:57:11.290Z,8.88
2023-02-17T14:59:37.994Z,10.00
2023-02-17T15:02:11.551Z,12.40
2023-02-17T15:04:38.213Z,11.05
2023-02-17T15:07:04.883Z,9.88
2023-02-17T15:09:31.579Z,13.88
2023-02-17T15:11:58.413Z,10.70
2023-02-17T15:14:25.196Z,16.13
2023-02-17T15:16:51.878Z,10.32
2023-02-17T15:19:18.651Z,16.52
2023-02-17T15:21:49.917Z,13.02
2023-02-17T15:24:19.147Z,11.32
2023-02-17T15:26:45.822Z,16.40
2023-02-17T15:29:17.099Z,10.70
2023-02-17T15:31:43.894Z,19.98
2023-02-17T15:34:13.854Z,14.13
2023-02-17T15:36:40.512Z,16.60
2023-02-17T15:39:10.223Z,16.98
2023-02-17T15:41:36.894Z,16.42
2023-02-17T15:44:03.577Z,14.82
2023-02-17T15:46:31.277Z,12.75
2023-02-17T15:48:58.061Z,12.32
2023-02-17T15:51:24.701Z,10.73
2023-02-17T15:53:51.521Z,11.23
2023-02-17T15:56:20.538Z,13.45
2023-02-17T15:58:47.843Z,14.05
2023-02-17T16:01:18.706Z,14.98
2023-02-17T16:03:45.391Z,14.40
2023-02-17T16:06:12.021Z,13.77
2023-02-17T16:08:44.495Z,13.10
2023-02-17T16:11:14.378Z,12.90
2023-02-17T16:13:41.462Z,12.77
2023-02-17T16:16:28.911Z,12.45
2023-02-17T16:18:55.584Z,13.07
2023-02-17T16:21:22.209Z,16.20
2023-02-17T16:23:48.996Z,15.98
2023-02-17T16:26:36.015Z,18.67
2023-02-17T16:29:04.198Z,20.40
2023-02-17T16:31:31.818Z,20.05
2023-02-17T16:33:58.598Z,18.80
2023-02-17T16:36:25.365Z,17.75
2023-02-17T16:38:51.983Z,17.83
2023-02-17T16:41:19.764Z,20.10
2023-02-17T16:43:46.420Z,18.17
2023-02-17T16:46:40.968Z,23.98
2023-02-17T16:49:19.322Z,19.38
2023-02-17T16:51:46.151Z,19.33
2023-02-17T16:54:12.876Z,18.33
2023-02-17T16:56:43.334Z,20.35
2023-02-17T16:59:14.493Z,18.75
2023-02-17T17:01:41.302Z,17.77
2023-02-17T17:04:07.927Z,20.75
2023-02-17T17:06:34.655Z,15.05
2023-02-17T17:09:01.411Z,18.17
2023-02-17T17:11:28.043Z,14.73
2023-02-17T17:13:54.791Z,15.95
2023-02-17T17:16:26.092Z,18.48
2023-02-17T17:18:52.791Z,15.85
2023-02-17T17:21:19.614Z,19.90
2023-02-17T17:23:46.464Z,21.77
2023-02-17T17:26:33.393Z,21.35
2023-02-17T17:29:00.133Z,19.48
2023-02-17T17:31:27.115Z,16.98
2023-02-17T17:33:53.910Z,19.38
2023-02-17T17:36:32.327Z,15.38
2023-02-17T17:38:59.545Z,18.00
2023-02-17T17:41:26.641Z,23.45
2023-02-17T17:43:53.420Z,20.35
2023-02-17T17:46:30.262Z,19.38
2023-02-17T17:48:57.569Z,23.50
2023-02-17T17:51:24.438Z,21.58
2023-02-17T17:53:51.144Z,22.33
2023-02-17T17:56:26.396Z,24.77
2023-02-17T17:58:53.242Z,20.05
2023-02-17T18:01:20.358Z,28.23
2023-02-17T18:03:47.167Z,19.02
2023-02-17T18:06:20.014Z,25.42
2023-02-17T18:08:46.929Z,24.70
2023-02-17T18:11:15.257Z,24.23
2023-02-17T18:13:42.226Z,23.65
2023-02-17T18:16:09.271Z,26.42
2023-02-17T18:18:36.235Z,24.13
2023-02-17T18:21:02.924Z,26.20
2023-02-17T18:23:29.584Z,23.48
2023-02-17T18:25:56.296Z,20.77
2023-02-17T18:28:22.890Z,25.08
2023-02-17T18:30:49.612Z,27.88
2023-02-17T18:33:16.295Z,23.83
2023-02-17T18:35:42.924Z,26.40
2023-02-17T18:38:09.611Z,26.00
2023-02-17T18:40:41.314Z,24.92
2023-02-17T18:43:08.506Z,22.55
2023-02-17T18:45:35.276Z,23.85
2023-02-17T18:48:01.946Z,27.60
2023-02-17T18:50:28.600Z,23.42
2023-02-17T18:52:55.237Z,27.23
2023-02-17T18:55:21.916Z,29.40
2023-02-17T18:57:48.572Z,26.35
2023-02-17T19:00:15.895Z,21.60
2023-02-17T19:02:42.609Z,29.05
2023-02-17T19:05:09.804Z,26.52
2023-02-17T19:07:36.479Z,25.33
2023-02-17T19:10:03.892Z,29.98
2023-02-17T19:12:30.526Z,27.80
2023-02-17T19:14:57.203Z,22.48
2023-02-17T19:17:24.107Z,21.35
2023-02-17T19:19:51.003Z,26.60
2023-02-17T19:22:17.876Z,26.10
2023-02-17T19:24:44.960Z,36.25
2023-02-17T19:27:11.728Z,31.15
2023-02-17T19:29:38.460Z,32.00
2023-02-17T19:32:05.193Z,36.97
2023-02-17T19:34:31.885Z,34.35
2023-02-17T19:36:58.568Z,35.85
2023-02-17T19:39:25.217Z,38.65
2023-02-17T19:41:51.896Z,36.15
2023-02-17T19:44:18.492Z,36.72
2023-02-17T19:46:45.119Z,36.78
2023-02-17T19:49:11.712Z,38.53
2023-02-17T19:51:38.375Z,39.17
2023-02-17T19:54:05.018Z,37.35
2023-02-17T19:56:32.397Z,38.45
2023-02-17T19:58:59.221Z,42.45
2023-02-17T20:01:30.217Z,41.63
2023-02-17T20:03:57.303Z,40.28
2023-02-17T20:06:26.346Z,39.13
2023-02-17T20:08:54.744Z,36.95
2023-02-17T20:11:21.438Z,34.10
2023-02-17T20:13:48.069Z,39.15
2023-02-17T20:16:15.534Z,43.00
2023-02-17T20:18:43.629Z,51.30
2023-02-17T20:21:11.393Z,37.67
2023-02-17T20:23:38.180Z,48.65
2023-02-17T20:26:06.541Z,42.83
2023-02-17T20:28:33.717Z,40.00
2023-02-17T20:31:00.727Z,40.85
2023-02-17T20:33:27.454Z,47.33
2023-02-17T20:35:54.121Z,43.30
2023-02-17T20:38:20.778Z,45.92
2023-02-17T20:40:47.450Z,55.30
2023-02-17T20:43:14.104Z,42.97
2023-02-17T20:45:41.199Z,44.88
2023-02-17T20:48:07.874Z,41.97
2023-02-17T20:50:34.596Z,49.72
2023-02-17T20:53:01.353Z,51.70
2023-02-17T20:55:28.036Z,48.28
2023-02-17T20:57:54.710Z,53.45
2023-02-17T21:00:23.084Z,53.45
2023-02-17T21:02:49.752Z,55.78
2023-02-17T21:05:16.478Z,48.35
2023-02-17T21:07:43.078Z,57.25
2023-02-17T21:10:13.921Z,53.33
2023-02-17T21:12:40.515Z,48.83
2023-02-17T21:15:07.500Z,59.55
2023-02-17T21:17:34.136Z,62.53
2023-02-17T21:20:00.831Z,53.00
2023-02-17T21:22:27.460Z,65.40
2023-02-17T21:24:54.132Z,62.00
2023-02-17T21:27:20.777Z,61.75
2023-02-17T21:29:47.492Z,66.95
2023-02-17T21:32:14.365Z,59.20
2023-02-17T21:34:41.071Z,65.15
2023-02-17T21:37:07.856Z,51.78
2023-02-17T21:39:35.176Z,57.50
2023-02-17T21:42:01.800Z,61.00
2023-02-17T21:44:28.452Z,63.92
2023-02-17T21:46:55.105Z,60.53
2023-02-17T21:49:21.738Z,56.35
2023-02-17T21:51:48.443Z,62.83
2023-02-17T21:54:15.276Z,62.28
2023-02-17T21:56:41.912Z,59.72
2023-02-17T21:59:08.672Z,63.85
2023-02-17T22:01:35.413Z,57.72
2023-02-17T22:04:02.108Z,59.60
2023-02-17T22:06:30.675Z,56.95
2023-02-17T22:08:57.717Z,56.50
2023-02-17T22:11:26.026Z,62.72
2023-02-17T22:13:56.893Z,52.90
2023-02-17T22:16:24.014Z,52.58
2023-02-17T22:18:51.137Z,49.92
2023-02-17T22:21:17.832Z,54.22
2023-02-17T22:23:44.531Z,59.60
2023-02-17T22:26:13.915Z,56.35
2023-02-17T22:28:40.618Z,55.05
2023-02-17T22:31:07.387Z,51.55
2023-02-17T22:33:34.194Z,49.63
2023-02-17T22:36:06.428Z,56.95
2023-02-17T22:38:33.392Z,49.95
2023-02-17T22:41:00.173Z,57.25
2023-02-17T22:43:26.790Z,58.75
2023-02-17T22:45:59.951Z,55.92
2023-02-17T22:48:27.479Z,50.45
2023-02-17T22:50:54.083Z,54.95
2023-02-17T22:53:20.877Z,57.88
2023-02-17T22:55:54.920Z,60.03
2023-02-17T22:58:21.939Z,53.55
2023-02-17T23:00:48.720Z,64.60
2023-02-17T23:03:16.376Z,66.90
2023-02-17T23:05:43.008Z,57.05
2023-02-17T23:08:10.495Z,49.38
2023-02-17T23:10:41.515Z,58.17
2023-02-17T23:13:08.322Z,58.15
2023-02-17T23:15:35.140Z,55.58
2023-02-17T23:18:01.736Z,65.82
2023-02-17T23:20:28.359Z,71.38
2023-02-17T23:22:54.948Z,59.28
2023-02-17T23:25:21.600Z,60.45
2023-02-17T23:27:48.260Z,62.20
2023-02-17T23:30:19.649Z,60.25
2023-02-17T23:32:46.322Z,55.65
2023-02-17T23:35:13.102Z,54.47
2023-02-17T23:37:39.721Z,55.20
2023-02-17T23:40:06.956Z,58.03
2023-02-17T23:42:33.740Z,53.92
2023-02-17T23:45:00.338Z,56.30
2023-02-17T23:47:27.077Z,56.63
2023-02-17T23:49:53.693Z,55.88
2023-02-17T23:52:21.464Z,50.28
2023-02-17T23:54:48.101Z,49.92
2023-02-17T23:57:14.721Z,60.97
2023-02-17T23:59:41.408Z,56.60
